createdAt,value
2023-02-08T00:01:20.235Z,20.80
2023-02-08T00:03:48.245Z,20.00
2023-02-08T00:06:17.426Z,19.30
2023-02-08T00:08:45.836Z,18.80
2023-02-08T00:11:13.808Z,20.80
2023-02-08T00:13:43.003Z,23.40
2023-02-08T00:16:13.436Z,20.20
2023-02-08T00:18:42.405Z,22.60
2023-02-08T00:21:16.580Z,22.20
2023-02-08T00:23:44.795Z,23.60
2023-02-08T00:26:13.455Z,25.60
2023-02-08T00:28:42.304Z,23.90
2023-02-08T00:31:10.211Z,23.50
2023-02-08T00:33:38.406Z,23.90
2023-02-08T00:36:08.744Z,26.20
2023-02-08T00:38:37.169Z,27.10
2023-02-08T00:41:05.232Z,27.50
2023-02-08T00:43:33.200Z,28.60
2023-02-08T00:46:01.587Z,30.20
2023-02-08T00:48:30.178Z,34.60
2023-02-08T00:51:06.990Z,31.00
2023-02-08T00:53:37.275Z,29.70
2023-02-08T00:56:08.035Z,29.30
2023-02-08T00:58:36.385Z,31.00
2023-02-08T01:01:05.951Z,29.60
2023-02-08T01:03:39.604Z,30.50
2023-02-08T01:06:10.169Z,32.70
2023-02-08T01:08:38.509Z,32.90
2023-02-08T01:11:12.032Z,29.10
2023-02-08T01:13:40.725Z,33.30
2023-02-08T01:16:22.240Z,34.40
2023-02-08T01:18:52.624Z,36.00
2023-02-08T01:21:23.874Z,33.60
2023-02-08T01:23:52.562Z,32.20
2023-02-08T01:26:21.718Z,61.80
2023-02-08T01:28:51.302Z,42.40
2023-02-08T01:31:22.360Z,36.50
2023-02-08T01:33:50.707Z,38.20
2023-02-08T01:36:18.827Z,56.70
2023-02-08T01:38:47.581Z,37.40
2023-02-08T01:41:37.540Z,42.10
2023-02-08T01:44:11.908Z,56.30
2023-02-08T01:46:42.382Z,44.90
2023-02-08T01:49:22.700Z,44.50
2023-02-08T01:51:55.976Z,43.20
2023-02-08T01:54:30.547Z,35.40
2023-02-08T01:56:59.094Z,32.10
2023-02-08T01:59:33.879Z,33.20
2023-02-08T02:02:04.818Z,33.60
2023-02-08T02:04:32.857Z,33.50
2023-02-08T02:07:03.928Z,34.60
2023-02-08T02:09:40.191Z,34.90
2023-02-08T02:12:09.650Z,55.80
2023-02-08T02:14:38.903Z,40.70
2023-02-08T02:17:07.405Z,51.00
2023-02-08T02:20:03.564Z,44.60
2023-02-08T02:22:31.372Z,45.50
2023-02-08T02:25:30.500Z,35.90
2023-02-08T02:28:53.055Z,40.60
2023-02-08T02:31:57.406Z,34.10
2023-02-08T02:35:01.787Z,35.10
2023-02-08T02:37:44.799Z,37.50
2023-02-08T02:40:32.084Z,34.00
2023-02-08T02:43:30.006Z,32.20
2023-02-08T02:46:19.827Z,30.50
2023-02-08T02:48:50.573Z,29.30
2023-02-08T02:51:27.415Z,31.10
2023-02-08T02:54:17.277Z,30.80
2023-02-08T02:56:49.161Z,36.60
2023-02-08T02:59:18.282Z,47.30
2023-02-08T03:01:47.168Z,38.30
2023-02-08T03:04:18.168Z,40.60
2023-02-08T03:06:49.010Z,36.50
2023-02-08T03:09:37.520Z,35.20
2023-02-08T03:12:33.640Z,51.80
2023-02-08T03:15:19.684Z,52.90
2023-02-08T03:18:19.449Z,41.20
2023-02-08T03:21:17.850Z,66.50
2023-02-08T03:23:51.773Z,37.40
2023-02-08T03:26:32.063Z,35.70
2023-02-08T03:29:30.895Z,36.20
2023-02-08T03:32:22.171Z,34.40
2023-02-08T03:35:18.133Z,37.50
2023-02-08T03:37:55.356Z,47.90
2023-02-08T03:40:27.090Z,40.50
2023-02-08T03:43:00.245Z,52.20
2023-02-08T03:45:45.682Z,43.40
2023-02-08T03:50:47.283Z,35.00
2023-02-08T03:53:22.516Z,36.10
2023-02-08T03:55:58.196Z,37.30
2023-02-08T03:58:34.690Z,36.00
2023-02-08T04:01:20.161Z,35.50
2023-02-08T04:03:53.178Z,35.50
2023-02-08T04:06:22.521Z,36.30
2023-02-08T04:08:50.654Z,35.80
2023-02-08T04:11:18.643Z,34.60
2023-02-08T04:13:46.530Z,35.90
2023-02-08T04:16:14.636Z,42.20
2023-02-08T04:18:43.010Z,35.30
2023-02-08T04:21:10.970Z,37.80
2023-02-08T04:23:38.989Z,40.80
2023-02-08T04:26:08.885Z,35.80
2023-02-08T04:28:36.850Z,37.20
2023-02-08T04:31:05.055Z,45.60
2023-02-08T04:33:32.970Z,43.10
2023-02-08T04:36:00.835Z,38.10
2023-02-08T04:38:28.749Z,40.90
2023-02-08T04:40:56.716Z,40.10
2023-02-08T04:43:24.933Z,45.80
2023-02-08T04:45:52.936Z,42.50
2023-02-08T04:48:21.272Z,45.20
2023-02-08T04:50:49.124Z,55.50
2023-02-08T04:53:17.198Z,62.80
2023-02-08T04:55:45.232Z,46.00
2023-02-08T04:58:13.165Z,51.40
2023-02-08T05:00:41.508Z,62.40
2023-02-08T05:03:10.359Z,47.40
2023-02-08T05:05:38.406Z,38.30
2023-02-08T05:08:06.618Z,42.00
2023-02-08T05:10:34.761Z,42.50
2023-02-08T05:13:02.924Z,39.00
2023-02-08T05:15:31.001Z,38.20
2023-02-08T05:17:58.833Z,50.60
2023-02-08T05:20:26.850Z,41.90
2023-02-08T05:22:54.844Z,43.10
2023-02-08T05:25:23.114Z,41.30
2023-02-08T05:27:51.395Z,38.20
2023-02-08T05:30:19.660Z,42.20
2023-02-08T05:32:47.666Z,35.40
2023-02-08T05:35:15.730Z,33.00
2023-02-08T05:37:43.740Z,36.80
2023-02-08T05:40:13.307Z,47.30
2023-02-08T05:42:42.471Z,39.80
2023-02-08T05:45:10.335Z,36.50
2023-02-08T05:47:38.226Z,44.40
2023-02-08T05:50:06.834Z,48.40
2023-02-08T05:52:34.755Z,45.90
2023-02-08T05:55:02.751Z,40.80
2023-02-08T05:57:33.606Z,49.40
2023-02-08T06:00:05.510Z,35.00
2023-02-08T06:02:34.337Z,32.70
2023-02-08T06:05:02.195Z,40.10
2023-02-08T06:07:30.250Z,40.90
2023-02-08T06:09:58.101Z,34.80
2023-02-08T06:12:26.122Z,36.80
2023-02-08T06:14:53.886Z,36.40
2023-02-08T06:17:21.746Z,34.00
2023-02-08T06:19:49.683Z,30.80
2023-02-08T06:22:17.687Z,257.70
2023-02-08T06:24:45.622Z,167.00
2023-02-08T06:27:13.631Z,48.90
2023-02-08T06:29:41.533Z,39.30
2023-02-08T06:32:09.653Z,75.20
2023-02-08T06:34:37.573Z,75.60
2023-02-08T06:37:05.734Z,38.60
2023-02-08T06:39:34.294Z,36.50
2023-02-08T06:42:02.256Z,27.90
2023-02-08T06:44:30.287Z,30.90
2023-02-08T06:46:58.157Z,22.20
2023-02-08T06:49:25.966Z,21.80
2023-02-08T06:51:54.027Z,78.80
2023-02-08T06:54:21.906Z,48.20
2023-02-08T06:56:49.901Z,39.10
2023-02-08T06:59:17.808Z,51.40
2023-02-08T07:01:45.757Z,40.50
2023-02-08T07:04:13.685Z,27.20
2023-02-08T07:06:41.541Z,21.60
2023-02-08T07:09:09.394Z,57.60
2023-02-08T07:11:37.351Z,37.30
2023-02-08T07:14:05.457Z,27.50
2023-02-08T07:16:33.386Z,61.70
2023-02-08T07:19:01.389Z,25.90
2023-02-08T07:21:29.350Z,32.00
2023-02-08T07:23:57.283Z,23.20
2023-02-08T07:26:25.091Z,35.80
2023-02-08T07:28:52.865Z,15.40
2023-02-08T07:31:20.832Z,21.80
2023-02-08T07:33:49.502Z,36.90
2023-02-08T07:36:17.322Z,21.40
2023-02-08T07:38:45.235Z,32.10
2023-02-08T07:41:14.860Z,24.10
2023-02-08T07:43:43.256Z,28.20
2023-02-08T07:46:20.892Z,23.50
2023-02-08T07:48:52.868Z,16.60
2023-02-08T07:51:20.814Z,17.50
2023-02-08T07:53:48.873Z,21.70
2023-02-08T07:56:17.513Z,58.60
2023-02-08T07:58:46.661Z,35.20
2023-02-08T08:01:22.260Z,32.40
2023-02-08T08:03:52.423Z,20.20
2023-02-08T08:06:22.013Z,21.60
2023-02-08T08:08:50.770Z,14.60
2023-02-08T08:11:20.843Z,13.20
2023-02-08T08:13:48.961Z,13.70
2023-02-08T08:16:17.424Z,16.20
2023-02-08T08:18:45.955Z,15.50
2023-02-08T08:21:15.497Z,15.90
2023-02-08T08:23:43.590Z,16.00
2023-02-08T08:26:18.751Z,14.40
2023-02-08T08:28:47.455Z,13.70
2023-02-08T08:31:21.539Z,14.00
2023-02-08T08:33:50.611Z,15.60
2023-02-08T08:36:18.643Z,17.70
2023-02-08T08:38:46.712Z,29.00
2023-02-08T08:41:22.454Z,45.50
2023-02-08T08:46:18.564Z,21.20
2023-02-08T08:48:46.899Z,32.50
2023-02-08T08:51:15.234Z,32.50
2023-02-08T08:53:43.332Z,25.30
2023-02-08T08:56:11.843Z,22.50
2023-02-08T08:58:40.094Z,17.90
2023-02-08T09:01:07.981Z,233.00
2023-02-08T09:03:36.203Z,166.90
2023-02-08T09:06:04.086Z,241.00
2023-02-08T09:08:32.077Z,82.30
2023-02-08T09:11:11.742Z,36.70
2023-02-08T09:13:40.172Z,46.70
2023-02-08T09:16:15.002Z,34.90
2023-02-08T09:18:44.215Z,22.70
2023-02-08T09:21:18.772Z,26.70
2023-02-08T09:23:50.011Z,36.30
2023-02-08T09:26:19.885Z,20.00
2023-02-08T09:28:48.276Z,18.50
2023-02-08T09:31:21.164Z,17.50
2023-02-08T09:33:54.342Z,15.70
2023-02-08T09:36:24.424Z,22.20
2023-02-08T09:39:00.255Z,16.90
2023-02-08T09:41:37.021Z,19.00
2023-02-08T09:44:26.409Z,18.10
2023-02-08T09:47:08.733Z,27.50
2023-02-08T09:49:43.586Z,15.70
2023-02-08T09:52:16.517Z,19.10
2023-02-08T09:54:54.885Z,16.50
2023-02-08T09:57:28.853Z,15.10
2023-02-08T10:00:01.839Z,14.20
2023-02-08T10:02:32.797Z,19.00
2023-02-08T10:05:29.918Z,14.10
2023-02-08T10:08:00.581Z,12.60
2023-02-08T10:10:55.519Z,15.60
2023-02-08T10:13:42.545Z,12.00
2023-02-08T10:16:32.637Z,12.40
2023-02-08T10:19:18.695Z,13.20
2023-02-08T10:22:07.578Z,11.50
2023-02-08T10:24:38.480Z,12.90
2023-02-08T10:27:08.974Z,14.60
2023-02-08T10:30:04.829Z,13.60
2023-02-08T10:32:51.467Z,12.20
2023-02-08T10:35:28.987Z,20.00
2023-02-08T10:37:57.054Z,23.80
2023-02-08T10:40:35.955Z,15.30
2023-02-08T10:43:26.942Z,21.50
2023-02-08T10:46:20.463Z,15.30
2023-02-08T10:49:16.654Z,14.30
2023-02-08T10:51:46.376Z,22.10
2023-02-08T10:54:16.256Z,24.90
2023-02-08T10:56:57.694Z,26.30
2023-02-08T10:59:37.536Z,21.20
2023-02-08T11:02:29.063Z,21.20
2023-02-08T11:05:05.573Z,14.30
2023-02-08T11:07:36.471Z,14.30
2023-02-08T11:10:25.700Z,15.70
2023-02-08T11:12:56.764Z,13.70
2023-02-08T11:15:37.429Z,27.30
2023-02-08T11:18:07.184Z,23.90
2023-02-08T11:20:40.462Z,25.50
2023-02-08T11:23:30.156Z,48.10
2023-02-08T11:26:30.959Z,29.80
2023-02-08T11:29:17.976Z,43.60
2023-02-08T11:31:55.440Z,26.90
2023-02-08T11:34:26.327Z,32.50
2023-02-08T11:36:55.985Z,35.10
2023-02-08T11:39:40.514Z,43.10
2023-02-08T11:42:26.317Z,48.00
2023-02-08T11:44:57.170Z,39.60
2023-02-08T11:47:30.720Z,37.10
2023-02-08T11:50:06.169Z,33.30
2023-02-08T11:52:38.290Z,30.60
2023-02-08T11:55:18.674Z,26.70
2023-02-08T11:58:01.113Z,19.90
2023-02-08T12:00:35.341Z,21.80
2023-02-08T12:03:23.853Z,19.50
2023-02-08T12:06:13.590Z,20.30
2023-02-08T12:08:54.559Z,21.30
2023-02-08T12:11:43.948Z,22.40
2023-02-08T12:14:21.319Z,19.20
2023-02-08T12:17:10.255Z,20.20
2023-02-08T12:20:10.301Z,23.10
2023-02-08T12:22:44.833Z,20.80
2023-02-08T12:25:28.178Z,20.40
2023-02-08T12:28:03.684Z,21.40
2023-02-08T12:30:43.993Z,13.00
2023-02-08T12:33:58.701Z,18.00
2023-02-08T12:36:41.545Z,18.40
2023-02-08T12:39:53.843Z,17.70
2023-02-08T12:42:26.198Z,20.10
2023-02-08T12:45:33.041Z,18.70
2023-02-08T12:48:19.652Z,16.90
2023-02-08T12:50:59.266Z,54.00
2023-02-08T12:53:49.082Z,58.30
2023-02-08T12:56:23.337Z,131.50
2023-02-08T12:59:08.254Z,69.60
2023-02-08T13:01:47.463Z,82.90
2023-02-08T13:04:22.894Z,117.70
2023-02-08T13:06:59.360Z,80.70
2023-02-08T13:09:35.517Z,54.70
2023-02-08T13:12:19.548Z,43.60
2023-02-08T13:14:52.685Z,34.60
2023-02-08T13:17:51.711Z,34.90
2023-02-08T13:20:30.972Z,30.10
2023-02-08T13:23:11.337Z,29.70
2023-02-08T13:25:43.157Z,30.20
2023-02-08T13:28:19.780Z,28.40
2023-02-08T13:31:07.216Z,30.40
2023-02-08T13:33:59.292Z,28.40
2023-02-08T13:36:40.506Z,31.30
2023-02-08T13:39:35.177Z,28.40
2023-02-08T13:42:06.264Z,28.60
2023-02-08T13:44:38.547Z,27.20
2023-02-08T13:47:08.052Z,28.90
2023-02-08T13:49:51.223Z,30.00
2023-02-08T13:52:46.957Z,26.50
2023-02-08T13:55:32.152Z,25.90
2023-02-08T13:58:04.325Z,24.60
2023-02-08T14:00:35.565Z,25.20
2023-02-08T14:03:15.519Z,25.40
2023-02-08T14:05:53.375Z,26.10
2023-02-08T14:08:23.629Z,26.30
2023-02-08T14:11:30.463Z,26.10
2023-02-08T14:13:58.338Z,26.60
2023-02-08T14:16:40.749Z,27.30
2023-02-08T14:19:20.705Z,28.60
2023-02-08T14:22:07.014Z,26.20
2023-02-08T14:24:59.809Z,27.20
2023-02-08T14:27:39.816Z,26.70
2023-02-08T14:30:17.138Z,26.10
2023-02-08T14:33:05.190Z,25.10
2023-02-08T14:35:37.648Z,94.50
2023-02-08T14:38:23.971Z,72.00
2023-02-08T14:41:02.080Z,47.50
2023-02-08T14:43:42.589Z,33.70
2023-02-08T14:46:43.322Z,27.80
2023-02-08T14:49:17.256Z,31.00
2023-02-08T14:52:02.957Z,28.80
2023-02-08T14:54:37.613Z,28.30
2023-02-08T14:57:28.098Z,31.10
2023-02-08T15:00:00.619Z,44.10
2023-02-08T15:02:32.674Z,42.50
2023-02-08T15:05:09.414Z,47.20
2023-02-08T15:07:47.165Z,41.30
2023-02-08T15:10:17.201Z,40.90
2023-02-08T15:12:51.706Z,28.30
2023-02-08T15:15:28.883Z,29.10
2023-02-08T15:17:57.975Z,42.50
2023-02-08T15:20:32.117Z,37.00
2023-02-08T15:23:19.982Z,33.10
2023-02-08T15:26:06.653Z,28.80
2023-02-08T15:28:36.728Z,32.30
2023-02-08T15:31:09.631Z,31.10
2023-02-08T15:33:39.573Z,42.40
2023-02-08T15:36:22.701Z,49.80
2023-02-08T15:38:51.084Z,58.80
2023-02-08T15:41:31.692Z,46.40
2023-02-08T15:44:30.145Z,30.90
2023-02-08T15:47:04.489Z,30.40
2023-02-08T15:49:37.548Z,27.90
2023-02-08T15:52:06.381Z,28.70
2023-02-08T15:54:34.936Z,27.90
2023-02-08T15:57:08.010Z,32.10
2023-02-08T15:59:39.229Z,32.80
2023-02-08T16:02:26.171Z,44.30
2023-02-08T16:04:55.633Z,65.80
2023-02-08T16:07:29.440Z,55.80
2023-02-08T16:09:58.141Z,63.80
2023-02-08T16:12:28.923Z,88.90
2023-02-08T16:14:57.055Z,78.30
2023-02-08T16:17:37.758Z,62.70
2023-02-08T16:20:22.818Z,49.00
2023-02-08T16:22:59.924Z,40.30
2023-02-08T16:25:37.885Z,36.20
2023-02-08T16:28:06.154Z,37.20
2023-02-08T16:30:34.580Z,45.20
2023-02-08T16:33:08.056Z,45.60
2023-02-08T16:35:38.814Z,60.50
2023-02-08T16:38:10.244Z,112.20
2023-02-08T16:40:38.151Z,138.10
2023-02-08T16:43:20.222Z,108.60
2023-02-08T16:46:16.552Z,72.70
2023-02-08T16:48:48.899Z,60.80
2023-02-08T16:51:24.704Z,41.40
2023-02-08T16:53:56.738Z,36.40
2023-02-08T16:56:25.068Z,37.60
2023-02-08T16:58:53.342Z,34.90
2023-02-08T17:01:26.414Z,37.20
2023-02-08T17:03:54.845Z,39.40
2023-02-08T17:06:37.557Z,37.70
2023-02-08T17:09:09.039Z,39.80
2023-02-08T17:11:37.868Z,39.50
2023-02-08T17:14:10.151Z,38.10
2023-02-08T17:16:40.074Z,39.40
2023-02-08T17:19:16.572Z,38.20
2023-02-08T17:21:44.989Z,37.80
2023-02-08T17:24:12.750Z,36.30
2023-02-08T17:26:44.023Z,41.60
2023-02-08T17:29:13.036Z,39.70
2023-02-08T17:31:41.391Z,38.10
2023-02-08T17:34:09.243Z,37.60
2023-02-08T17:36:37.310Z,42.90
2023-02-08T17:39:06.093Z,38.40
2023-02-08T17:41:35.543Z,37.90
2023-02-08T17:44:04.255Z,39.70
2023-02-08T17:46:32.978Z,41.60
2023-02-08T17:49:01.933Z,38.20
2023-02-08T17:51:31.070Z,48.70
2023-02-08T17:53:59.340Z,50.90
2023-02-08T17:56:28.750Z,58.70
2023-02-08T17:58:59.287Z,48.60
2023-02-08T18:01:27.327Z,63.50
2023-02-08T18:03:55.785Z,53.30
2023-02-08T18:06:25.102Z,47.70
2023-02-08T18:08:54.875Z,62.90
2023-02-08T18:11:24.240Z,73.10
2023-02-08T18:13:53.834Z,88.60
2023-02-08T18:16:27.349Z,96.80
2023-02-08T18:19:02.047Z,80.90
2023-02-08T18:21:33.124Z,78.50
2023-02-08T18:24:05.595Z,76.40
2023-02-08T18:26:34.637Z,61.40
2023-02-08T18:29:03.514Z,45.60
2023-02-08T18:31:32.201Z,54.30
2023-02-08T18:34:00.245Z,60.50
2023-02-08T18:36:28.136Z,58.30
2023-02-08T18:38:56.997Z,62.80
2023-02-08T18:41:28.057Z,53.20
2023-02-08T18:43:58.308Z,44.90
2023-02-08T18:46:28.490Z,41.30
2023-02-08T18:48:56.979Z,39.10
2023-02-08T18:51:26.478Z,40.50
2023-02-08T18:53:55.102Z,54.10
2023-02-08T18:56:25.295Z,57.30
2023-02-08T18:58:55.636Z,131.60
2023-02-08T19:01:24.993Z,113.70
2023-02-08T19:03:54.245Z,111.60
2023-02-08T19:06:25.523Z,110.90
2023-02-08T19:08:56.033Z,115.90
2023-02-08T19:11:26.924Z,140.70
2023-02-08T19:14:01.865Z,185.50
2023-02-08T19:16:31.493Z,160.50
2023-02-08T19:19:01.237Z,192.20
2023-02-08T19:21:30.774Z,177.50
2023-02-08T19:24:00.709Z,170.80
2023-02-08T19:26:39.889Z,126.30
2023-02-08T19:29:14.234Z,136.20
2023-02-08T19:31:42.735Z,133.10
2023-02-08T19:34:12.357Z,132.80
2023-02-08T19:36:49.690Z,109.60
2023-02-08T19:39:22.637Z,69.60
2023-02-08T19:41:52.924Z,67.70
2023-02-08T19:44:22.749Z,55.30
2023-02-08T19:46:55.293Z,51.30
2023-02-08T19:49:26.031Z,60.60
2023-02-08T19:51:54.903Z,60.90
2023-02-08T19:54:23.212Z,59.40
2023-02-08T19:56:54.736Z,62.10
2023-02-08T19:59:29.320Z,69.10
2023-02-08T20:01:58.266Z,64.80
2023-02-08T20:04:26.498Z,52.90
2023-02-08T20:06:54.710Z,53.70
2023-02-08T20:09:22.607Z,51.60
2023-02-08T20:11:59.726Z,75.40
2023-02-08T20:14:31.126Z,101.10
2023-02-08T20:17:00.202Z,117.80
2023-02-08T20:19:29.378Z,91.10
2023-02-08T20:21:57.374Z,126.80
2023-02-08T20:24:25.372Z,126.90
2023-02-08T20:26:53.428Z,111.10
2023-02-08T20:29:21.439Z,103.20
2023-02-08T20:31:55.818Z,104.00
2023-02-08T20:34:24.431Z,116.00
2023-02-08T20:37:06.172Z,108.30
2023-02-08T20:39:36.897Z,101.60
2023-02-08T20:42:05.437Z,95.90
2023-02-08T20:44:33.571Z,79.80
2023-02-08T20:47:01.827Z,81.00
2023-02-08T20:49:32.217Z,82.90
2023-02-08T20:52:00.735Z,89.30
2023-02-08T20:54:28.898Z,76.10
2023-02-08T20:56:57.319Z,61.40
2023-02-08T20:59:25.647Z,61.20
2023-02-08T21:01:53.857Z,82.70
2023-02-08T21:04:26.364Z,69.50
2023-02-08T21:06:54.458Z,70.00
2023-02-08T21:09:22.503Z,63.90
2023-02-08T21:11:51.766Z,62.40
2023-02-08T21:14:23.252Z,72.90
2023-02-08T21:16:55.924Z,68.60
2023-02-08T21:19:25.876Z,74.70
2023-02-08T21:21:58.561Z,74.10
2023-02-08T21:24:27.532Z,75.30
2023-02-08T21:26:56.800Z,85.00
2023-02-08T21:29:25.496Z,93.70
2023-02-08T21:31:54.649Z,97.60
2023-02-08T21:34:23.163Z,95.50
2023-02-08T21:36:51.184Z,99.50
2023-02-08T21:39:19.338Z,95.90
2023-02-08T21:41:48.417Z,120.40
2023-02-08T21:44:16.572Z,159.30
2023-02-08T21:46:44.506Z,193.60
2023-02-08T21:49:31.668Z,168.30
2023-02-08T21:52:18.389Z,141.70
2023-02-08T21:54:53.139Z,119.90
2023-02-08T21:57:24.447Z,94.70
2023-02-08T21:59:56.609Z,92.90
2023-02-08T22:02:28.691Z,101.50
2023-02-08T22:04:59.196Z,101.70
2023-02-08T22:07:28.980Z,99.80
2023-02-08T22:09:58.025Z,95.50
2023-02-08T22:12:25.965Z,90.10
2023-02-08T22:14:53.956Z,85.10
2023-02-08T22:17:21.825Z,82.80
2023-02-08T22:19:49.750Z,70.90
2023-02-08T22:22:17.651Z,70.60
2023-02-08T22:24:45.461Z,82.30
2023-02-08T22:27:13.402Z,112.20
2023-02-08T22:29:41.420Z,124.10
2023-02-08T22:32:10.141Z,128.40
2023-02-08T22:34:38.538Z,89.40
2023-02-08T22:37:06.368Z,88.20
2023-02-08T22:39:35.871Z,86.00
2023-02-08T22:42:08.603Z,88.00
2023-02-08T22:44:36.674Z,103.70
2023-02-08T22:47:08.709Z,83.40
2023-02-08T22:49:37.940Z,85.70
2023-02-08T22:52:08.806Z,103.10
2023-02-08T22:54:36.736Z,89.00
2023-02-08T22:57:06.203Z,83.10
2023-02-08T22:59:34.343Z,72.90
2023-02-08T23:02:02.315Z,63.10
2023-02-08T23:04:31.180Z,57.30
2023-02-08T23:07:00.035Z,55.70
2023-02-08T23:09:27.912Z,51.90
2023-02-08T23:11:56.247Z,49.00
2023-02-08T23:14:24.236Z,49.70
2023-02-08T23:16:52.196Z,50.90
2023-02-08T23:19:20.034Z,53.70
2023-02-08T23:21:48.025Z,51.70
2023-02-08T23:24:15.887Z,50.10
2023-02-08T23:26:43.795Z,49.10
2023-02-08T23:29:11.815Z,58.20
2023-02-08T23:31:41.066Z,70.80
2023-02-08T23:34:11.518Z,71.30
2023-02-08T23:36:39.556Z,75.70
2023-02-08T23:39:08.153Z,72.00
2023-02-08T23:41:36.028Z,69.60
2023-02-08T23:44:04.166Z,66.10
2023-02-08T23:46:32.728Z,69.20
2023-02-08T23:49:00.901Z,68.80
2023-02-08T23:51:28.818Z,67.20
2023-02-08T23:53:56.853Z,69.50
2023-02-08T23:56:32.000Z,66.30
2023-02-08T23:59:00.605Z,66.50
